Terminal Aerodrome Forecast
Issued by NWS Chicago, IL

Home | Current Version | Previous Version | Graphics & Text | Print | Product List | Glossary On
Versions: 1 2 3 4 5 6 7 8 9 10 11 12 13 14 15 16 17 18 19 20 21 22 23 24 25 26 27 28 29 30 31 32
000
FTUS43 KLOT 201100
TAFRFD
TAF
KRFD 201134Z 2012/2112 22012KT P6SM VCSH SCT040 BKN080
     FM201400 22013G19KT P6SM SCT040 BKN100
     FM201700 25011G16KT P6SM VCSH BKN040 BKN100
      TEMPO 2017/2020 5SM -TSRA SCT015 BKN040CB
     FM210000 27010KT P6SM SCT040
     FM210800 29012G17KT P6SM FEW030=

USA.gov is the U.S. government's official web portal to all federal, state and local government web resources and services.